createdAt,value
2019-05-11T00:03:39.082Z,17.97
2019-05-11T00:08:44.482Z,17.20
2019-05-11T00:13:50.012Z,18.73
2019-05-11T00:18:55.365Z,19.73
2019-05-11T00:24:00.670Z,19.63
2019-05-11T00:29:06.479Z,18.27
2019-05-11T00:34:11.876Z,18.63
2019-05-11T00:39:17.420Z,17.83
2019-05-11T00:44:23.478Z,16.33
2019-05-11T00:49:28.961Z,15.50
2019-05-11T00:54:34.084Z,15.17
2019-05-11T00:59:39.735Z,15.63
2019-05-11T01:04:45.096Z,16.90
2019-05-11T01:09:50.393Z,15.43
2019-05-11T01:14:55.691Z,13.97
2019-05-11T01:20:01.043Z,13.57
2019-05-11T01:25:07.435Z,13.53
2019-05-11T01:30:13.638Z,13.87
2019-05-11T01:35:18.936Z,14.67
2019-05-11T01:40:24.596Z,15.37
2019-05-11T01:45:30.263Z,15.83
2019-05-11T01:50:35.613Z,15.63
2019-05-11T01:55:40.775Z,15.00
2019-05-11T02:00:46.433Z,13.83
2019-05-11T02:05:52.815Z,15.43
2019-05-11T02:11:14.611Z,16.70
2019-05-11T02:16:05.795Z,16.40
2019-05-11T02:21:11.658Z,16.73
2019-05-11T02:26:18.026Z,18.23
2019-05-11T02:31:23.509Z,19.13
2019-05-11T02:36:29.136Z,17.50
2019-05-11T02:41:37.412Z,18.70
2019-05-11T02:46:42.834Z,19.27
2019-05-11T02:51:48.180Z,19.53
2019-05-11T02:56:53.479Z,18.13
2019-05-11T03:01:59.128Z,18.80
2019-05-11T03:07:04.541Z,21.80
2019-05-11T03:12:09.928Z,21.63
2019-05-11T03:17:23.534Z,21.50
2019-05-11T03:22:29.068Z,21.60
2019-05-11T03:27:34.280Z,21.87
2019-05-11T03:32:39.572Z,23.30
2019-05-11T03:37:44.844Z,20.97
2019-05-11T03:42:50.299Z,22.33
2019-05-11T03:47:56.073Z,22.53
2019-05-11T03:53:01.336Z,22.10
2019-05-11T03:58:06.576Z,23.63
2019-05-11T04:03:11.922Z,22.70
2019-05-11T04:08:17.395Z,21.40
2019-05-11T04:13:22.869Z,19.90
2019-05-11T04:18:28.482Z,20.63
2019-05-11T04:23:33.857Z,19.57
2019-05-11T04:28:39.356Z,19.90
2019-05-11T04:33:44.886Z,19.80
2019-05-11T04:38:50.205Z,19.60
2019-05-11T04:43:55.434Z,20.07
2019-05-11T04:49:01.121Z,20.40
2019-05-11T04:54:06.301Z,19.97
2019-05-11T04:59:11.498Z,19.63
2019-05-11T05:04:17.038Z,19.13
2019-05-11T05:09:22.435Z,20.07
2019-05-11T05:14:28.056Z,19.13
2019-05-11T05:19:33.417Z,20.40
2019-05-11T05:24:38.721Z,28.90
2019-05-11T05:29:44.023Z,23.83
2019-05-11T05:34:49.128Z,21.30
2019-05-11T05:39:54.349Z,21.07
2019-05-11T05:44:59.569Z,38.60
2019-05-11T05:50:07.061Z,32.87
2019-05-11T05:55:12.491Z,23.50
2019-05-11T06:00:17.871Z,25.97
2019-05-11T06:05:23.014Z,17.53
2019-05-11T06:10:28.503Z,16.43
2019-05-11T06:15:33.892Z,16.20
2019-05-11T06:20:39.033Z,16.27
2019-05-11T06:25:44.272Z,15.97
2019-05-11T06:30:49.425Z,12.47
2019-05-11T06:35:55.056Z,13.67
2019-05-11T06:41:00.444Z,13.13
2019-05-11T06:46:05.688Z,13.80
2019-05-11T06:51:11.512Z,15.10
2019-05-11T06:56:16.750Z,13.67
2019-05-11T07:01:22.011Z,12.73
2019-05-11T07:06:30.509Z,10.40
2019-05-11T07:11:34.430Z,11.90
2019-05-11T07:16:39.746Z,11.67
2019-05-11T07:21:44.942Z,11.80
2019-05-11T07:26:50.249Z,10.70
2019-05-11T07:31:57.897Z,9.93
2019-05-11T07:37:02.655Z,9.07
2019-05-11T07:42:08.014Z,9.48
2019-05-11T07:47:13.355Z,8.40
2019-05-11T07:52:19.050Z,10.90
2019-05-11T07:57:24.385Z,10.37
2019-05-11T08:02:32.310Z,10.57
2019-05-11T08:07:38.036Z,10.47
2019-05-11T08:12:43.697Z,11.40
2019-05-11T08:17:49.149Z,11.60
2019-05-11T08:22:55.858Z,9.93
2019-05-11T08:28:01.248Z,8.63
2019-05-11T08:33:09.698Z,8.53
2019-05-11T08:38:14.932Z,6.80
2019-05-11T08:43:20.229Z,6.40
2019-05-11T08:48:25.494Z,6.07
2019-05-11T08:53:31.027Z,6.00
2019-05-11T08:58:38.012Z,5.60
2019-05-11T09:03:43.567Z,5.07
2019-05-11T09:08:49.437Z,4.77
2019-05-11T09:13:57.714Z,4.50
2019-05-11T09:19:02.274Z,5.13
2019-05-11T09:24:08.839Z,4.90
2019-05-11T09:29:14.260Z,5.97
2019-05-11T09:34:19.743Z,4.77
2019-05-11T09:39:27.898Z,4.57
2019-05-11T09:44:32.761Z,4.40
2019-05-11T09:49:46.569Z,4.20
2019-05-11T09:54:45.441Z,4.37
2019-05-11T09:59:50.701Z,4.07
2019-05-11T10:04:57.843Z,4.27
2019-05-11T10:10:03.936Z,3.37
2019-05-11T10:15:09.705Z,4.40
2019-05-11T10:20:14.940Z,4.50
2019-05-11T10:25:20.583Z,3.80
2019-05-11T10:30:28.057Z,3.80
2019-05-11T10:35:33.126Z,2.80
2019-05-11T10:40:39.226Z,3.00
2019-05-11T10:45:44.733Z,3.27
2019-05-11T10:50:50.127Z,3.03
2019-05-11T10:55:57.986Z,3.53
2019-05-11T11:01:02.629Z,3.73
2019-05-11T11:06:08.580Z,3.77
2019-05-11T11:11:14.978Z,3.17
2019-05-11T11:16:35.509Z,4.10
2019-05-11T11:21:27.926Z,3.93
2019-05-11T11:26:33.457Z,2.93
2019-05-11T11:31:38.784Z,3.30
2019-05-11T11:36:44.205Z,2.90
2019-05-11T11:41:49.674Z,3.30
2019-05-11T11:46:55.510Z,3.50
2019-05-11T11:52:01.120Z,3.30
2019-05-11T11:57:07.702Z,2.90
2019-05-11T12:02:13.256Z,3.07
2019-05-11T12:07:18.610Z,2.57
2019-05-11T12:12:23.981Z,2.23
2019-05-11T12:17:29.705Z,3.53
2019-05-11T12:22:34.983Z,2.90
2019-05-11T12:27:40.280Z,2.70
2019-05-11T12:32:49.777Z,2.27
2019-05-11T12:37:54.996Z,2.77
2019-05-11T12:43:00.280Z,2.13
2019-05-11T12:48:05.488Z,3.10
2019-05-11T12:53:10.860Z,2.20
2019-05-11T12:58:18.171Z,1.97
2019-05-11T13:03:23.412Z,2.43
2019-05-11T13:08:28.798Z,2.23
2019-05-11T13:13:34.115Z,2.83
2019-05-11T13:18:39.334Z,2.23
2019-05-11T13:23:44.633Z,2.90
2019-05-11T13:28:50.035Z,1.70
2019-05-11T13:33:55.268Z,2.33
2019-05-11T13:39:00.740Z,1.90
2019-05-11T13:44:08.019Z,1.77
2019-05-11T13:49:13.445Z,2.50
2019-05-11T13:54:18.774Z,2.20
2019-05-11T13:59:24.494Z,2.10
2019-05-11T14:04:29.668Z,1.80
2019-05-11T14:09:35.219Z,1.70
2019-05-11T14:14:40.320Z,1.87
2019-05-11T14:19:45.531Z,1.60
2019-05-11T14:24:50.732Z,1.90
2019-05-11T14:29:57.900Z,1.80
2019-05-11T14:35:03.016Z,1.40
2019-05-11T14:40:09.120Z,1.87
2019-05-11T14:45:14.480Z,1.70
2019-05-11T14:50:19.718Z,1.87
2019-05-11T14:55:24.997Z,2.00
2019-05-11T15:00:30.570Z,1.50
2019-05-11T15:05:37.902Z,1.80
2019-05-11T15:10:43.343Z,1.87
2019-05-11T15:15:49.002Z,1.90
2019-05-11T15:20:54.540Z,2.00
2019-05-11T15:25:59.831Z,1.80
2019-05-11T15:31:07.879Z,3.00
2019-05-11T15:36:13.090Z,1.57
2019-05-11T15:41:21.009Z,1.83
2019-05-11T15:46:28.232Z,5.07
2019-05-11T15:51:33.457Z,1.67
2019-05-11T15:56:38.871Z,3.07
2019-05-11T16:01:44.527Z,15.57
2019-05-11T16:06:49.936Z,7.23
2019-05-11T16:11:55.439Z,9.60
2019-05-11T16:17:02.094Z,2.50
2019-05-11T16:22:09.889Z,2.30
2019-05-11T16:27:14.648Z,2.40
2019-05-11T16:32:20.425Z,2.50
2019-05-11T16:37:25.668Z,4.50
2019-05-11T16:42:32.025Z,3.90
2019-05-11T16:47:39.109Z,3.00
2019-05-11T16:52:44.538Z,2.93
2019-05-11T16:57:49.778Z,2.87
2019-05-11T17:02:57.523Z,4.03
2019-05-11T17:08:02.548Z,3.20
2019-05-11T17:13:08.620Z,2.23
2019-05-11T17:18:14.087Z,3.23
2019-05-11T17:23:19.535Z,2.80
2019-05-11T17:28:24.755Z,3.07
2019-05-11T17:33:30.817Z,2.17
2019-05-11T17:38:38.734Z,2.77
2019-05-11T17:43:43.356Z,2.70
2019-05-11T17:48:50.288Z,3.10
2019-05-11T17:53:55.635Z,3.30
2019-05-11T17:59:00.694Z,3.90
2019-05-11T18:04:08.064Z,3.17
2019-05-11T18:09:12.906Z,3.43
2019-05-11T18:14:17.945Z,2.70
2019-05-11T18:19:23.298Z,3.30
2019-05-11T18:24:29.890Z,3.13
2019-05-11T18:29:35.367Z,3.53
2019-05-11T18:34:40.707Z,3.07
2019-05-11T18:39:48.303Z,3.50
2019-05-11T18:44:53.159Z,3.57
2019-05-11T18:49:58.856Z,3.57
2019-05-11T18:55:04.723Z,3.47
2019-05-11T19:00:10.758Z,3.60
2019-05-11T19:05:17.969Z,3.57
2019-05-11T19:10:23.332Z,3.43
2019-05-11T19:15:28.626Z,4.53
2019-05-11T19:20:45.452Z,3.47
2019-05-11T19:25:41.403Z,3.57
2019-05-11T19:30:48.852Z,4.10
2019-05-11T19:35:53.832Z,3.60
2019-05-11T19:40:59.274Z,3.57
2019-05-11T19:46:04.689Z,4.27
2019-05-11T19:51:11.987Z,4.40
2019-05-11T19:56:18.278Z,4.60
2019-05-11T20:01:23.781Z,4.50
2019-05-11T20:06:29.125Z,4.50
2019-05-11T20:11:34.436Z,4.17
2019-05-11T20:16:39.515Z,4.03
2019-05-11T20:21:44.775Z,4.50
2019-05-11T20:26:50.059Z,5.13
2019-05-11T20:31:57.719Z,8.17
2019-05-11T20:37:02.589Z,9.93
2019-05-11T20:42:08.747Z,8.03
2019-05-11T20:47:14.242Z,7.77
2019-05-11T20:52:19.483Z,8.30
2019-05-11T20:57:24.756Z,9.20
2019-05-11T21:02:30.138Z,9.50
2019-05-11T21:07:35.608Z,9.73
2019-05-11T21:12:40.895Z,10.53
2019-05-11T21:17:48.162Z,9.37
2019-05-11T21:22:53.290Z,8.50
2019-05-11T21:27:58.772Z,9.60
2019-05-11T21:33:04.564Z,10.53
2019-05-11T21:38:10.107Z,11.33
2019-05-11T21:43:15.540Z,11.93
2019-05-11T21:48:20.657Z,10.67
2019-05-11T21:53:28.643Z,10.30
2019-05-11T21:58:33.499Z,9.57
2019-05-11T22:03:38.645Z,9.60
2019-05-11T22:08:44.003Z,10.33
2019-05-11T22:13:49.460Z,10.53
2019-05-11T22:18:55.023Z,10.10
2019-05-11T22:24:00.992Z,11.07
2019-05-11T22:29:07.846Z,11.13
2019-05-11T22:34:13.385Z,11.33
2019-05-11T22:39:20.895Z,10.83
2019-05-11T22:44:27.746Z,12.20
2019-05-11T22:49:32.602Z,12.70
2019-05-11T22:54:38.412Z,11.60
2019-05-11T22:59:44.293Z,12.57
2019-05-11T23:04:49.702Z,13.33
2019-05-11T23:09:57.656Z,12.73
2019-05-11T23:15:08.055Z,13.33
2019-05-11T23:20:14.467Z,14.80
2019-05-11T23:25:20.143Z,13.67
2019-05-11T23:30:27.921Z,13.97
2019-05-11T23:35:33.422Z,13.83
2019-05-11T23:40:39.091Z,12.00
2019-05-11T23:45:44.751Z,14.60
2019-05-11T23:50:50.221Z,13.40
2019-05-11T23:55:57.917Z,13.90
